Time;durP1;ratioP1;P1;durP2;ratioP2;P2;SDS_P1;SDS_P2;PMS_P1;PMS_P2;Temp;Humidity;BMP_temperature;BMP_pressure;BME280_temperature;BME280_humidity;BME280_pressure;Samples;Min_cycle;Max_cycle;Signal;HPM_P1;HPM_P2
2023/04/12 00:00:25;;;;;;;7.40;1.48;;;7.80;99.90;;;;;;5093202;28;20039;-86
2023/04/12 00:02:53;;;;;;;3.72;1.25;;;7.90;99.90;;;;;;5095458;28;20028;-85
2023/04/12 00:05:25;;;;;;;4.32;1.30;;;7.90;99.90;;;;;;5080778;28;20138;-84
2023/04/12 00:07:54;;;;;;;5.22;1.30;;;8.00;99.90;;;;;;5098683;28;20416;-85
2023/04/12 00:10:21;;;;;;;7.68;2.38;;;8.00;99.90;;;;;;5098576;28;20491;-85
2023/04/12 00:12:47;;;;;;;4.72;1.30;;;8.00;99.90;;;;;;5098449;28;20031;-85
2023/04/12 00:15:14;;;;;;;5.95;1.25;;;7.90;99.90;;;;;;5114803;28;20043;-85
2023/04/12 00:17:40;;;;;;;9.75;1.60;;;8.00;99.90;;;;;;5097736;28;20043;-85
2023/04/12 00:20:13;;;;;;;4.07;1.30;;;8.00;99.90;;;;;;5114822;28;20031;-85
2023/04/12 00:22:40;;;;;;;3.25;1.33;;;8.00;99.90;;;;;;5096808;28;20113;-85
2023/04/12 00:25:06;;;;;;;7.22;1.67;;;8.00;99.90;;;;;;5097233;28;20038;-85
2023/04/12 00:27:32;;;;;;;9.63;2.25;;;8.00;99.90;;;;;;5080529;28;20028;-85
2023/04/12 00:29:58;;;;;;;6.33;1.50;;;8.00;99.90;;;;;;5097564;28;20035;-85
2023/04/12 00:32:23;;;;;;;8.60;1.77;;;8.00;99.90;;;;;;5096966;28;20281;-85
2023/04/12 00:34:49;;;;;;;3.58;1.40;;;8.00;99.90;;;;;;5063322;28;20289;-85
2023/04/12 00:37:15;;;;;;;8.77;2.20;;;8.10;99.90;;;;;;5079575;28;20046;-85
2023/04/12 00:39:40;;;;;;;4.33;1.30;;;8.10;99.90;;;;;;5063065;28;20388;-85
2023/04/12 00:42:06;;;;;;;5.15;1.50;;;8.00;99.90;;;;;;5113752;28;20036;-85
2023/04/12 00:44:32;;;;;;;6.13;1.40;;;8.00;99.90;;;;;;5077720;28;20040;-85
2023/04/12 00:46:59;;;;;;;5.25;1.65;;;8.00;99.90;;;;;;5113523;28;20301;-85
2023/04/12 00:49:29;;;;;;;;;;;8.00;99.90;;;;;;5097114;28;20039;-85
2023/04/12 00:52:07;;;;;;;9.85;1.88;;;8.00;99.90;;;;;;5096513;28;19962;-85
2023/04/12 00:54:34;;;;;;;4.03;1.15;;;8.00;99.90;;;;;;5113615;28;20047;-85
2023/04/12 00:57:00;;;;;;;6.93;1.33;;;8.00;99.90;;;;;;5097106;28;20035;-85
2023/04/12 00:59:27;;;;;;;4.38;1.42;;;8.10;99.90;;;;;;5094061;28;20128;-85
2023/04/12 01:01:56;;;;;;;3.80;1.40;;;8.10;99.90;;;;;;5096649;28;20038;-85
2023/04/12 01:04:25;;;;;;;7.10;1.92;;;8.10;99.90;;;;;;5096048;28;20126;-85
2023/04/12 01:07:21;;;;;;;3.45;1.15;;;8.10;99.90;;;;;;5113537;28;20441;-85
2023/04/12 01:10:11;;;;;;;5.07;1.38;;;8.20;99.90;;;;;;5112541;28;20032;-85
2023/04/12 01:13:10;;;;;;;6.88;1.60;;;8.20;99.90;;;;;;5096338;28;20051;-85
2023/04/12 01:15:43;;;;;;;4.53;1.33;;;8.20;99.90;;;;;;5112391;28;20109;-85
2023/04/12 01:18:15;;;;;;;3.83;1.17;;;8.20;99.90;;;;;;5112816;28;20039;-85
2023/04/12 01:20:57;;;;;;;8.82;2.20;;;8.20;99.90;;;;;;5113059;28;20100;-85
2023/04/12 01:23:56;;;;;;;5.88;1.42;;;8.30;99.90;;;;;;5095590;28;20118;-85
2023/04/12 01:26:44;;;;;;;9.25;1.90;;;8.30;99.90;;;;;;5096208;28;20027;-85
2023/04/12 01:29:20;;;;;;;5.97;1.70;;;8.30;99.90;;;;;;5114186;28;20039;-85
2023/04/12 01:32:01;;;;;;;7.82;1.48;;;8.40;99.90;;;;;;5114891;28;20514;-85
2023/04/12 01:34:32;;;;;;;6.05;1.67;;;8.50;99.90;;;;;;5113906;28;20429;-85
2023/04/12 01:37:01;;;;;;;6.65;1.77;;;8.60;99.90;;;;;;5097439;28;20038;-85
2023/04/12 01:39:29;;;;;;;5.70;1.60;;;8.50;99.90;;;;;;5096727;28;20092;-85
2023/04/12 01:41:56;;;;;;;6.60;1.90;;;8.50;99.90;;;;;;5113331;28;20433;-85
2023/04/12 01:44:21;;;;;;;5.47;1.85;;;8.50;99.90;;;;;;5097156;28;20118;-85
2023/04/12 01:46:47;;;;;;;9.43;2.65;;;8.60;99.90;;;;;;5114223;28;20083;-85
2023/04/12 01:49:16;;;;;;;6.95;1.90;;;8.60;99.90;;;;;;5114061;28;20053;-85
2023/04/12 01:51:44;;;;;;;18.83;1.70;;;8.50;99.90;;;;;;5114365;28;20483;-85
2023/04/12 01:54:29;;;;;;;6.00;1.65;;;8.60;99.90;;;;;;5114031;28;20487;-85
2023/04/12 01:56:58;;;;;;;9.88;1.55;;;8.60;99.90;;;;;;5113457;28;20051;-86
2023/04/12 01:59:37;;;;;;;5.75;1.88;;;8.60;99.90;;;;;;5113584;28;20124;-84
2023/04/12 02:02:03;;;;;;;4.70;1.95;;;8.70;99.90;;;;;;5113881;28;20038;-86
2023/04/12 02:04:30;;;;;;;3.70;1.30;;;8.70;99.90;;;;;;5096413;28;21113;-85
2023/04/12 02:06:56;;;;;;;4.90;1.63;;;8.70;99.90;;;;;;5113828;28;20047;-85
2023/04/12 02:09:22;;;;;;;3.17;1.13;;;8.30;99.90;;;;;;5095819;28;20031;-85
2023/04/12 02:11:48;;;;;;;2.97;1.30;;;8.60;99.90;;;;;;5079844;28;20035;-85
2023/04/12 02:14:14;;;;;;;4.45;1.85;;;8.70;99.90;;;;;;5113749;28;20111;-85
2023/04/12 02:16:44;;;;;;;6.20;1.85;;;8.70;99.90;;;;;;5096601;28;20032;-85
2023/04/12 02:19:13;;;;;;;4.38;1.20;;;8.70;99.90;;;;;;5096607;28;20043;-85
2023/04/12 02:21:40;;;;;;;7.13;1.63;;;8.50;99.90;;;;;;5113610;28;20067;-85
2023/04/12 02:24:07;;;;;;;6.75;1.80;;;8.50;99.90;;;;;;5096583;28;20093;-86
2023/04/12 02:26:32;;;;;;;;;;;8.50;99.90;;;;;;5095046;28;20067;-85
2023/04/12 02:28:58;;;;;;;7.68;1.85;;;8.60;99.90;;;;;;5078123;28;20406;-86
2023/04/12 02:31:24;;;;;;;4.23;1.60;;;8.50;99.90;;;;;;5094879;28;20117;-85
2023/04/12 02:33:49;;;;;;;3.80;1.30;;;8.60;99.90;;;;;;5077426;28;20286;-84
2023/04/12 02:36:17;;;;;;;6.77;1.53;;;8.60;99.90;;;;;;5077674;28;20472;-85
2023/04/12 02:38:42;;;;;;;6.20;1.70;;;8.50;99.90;;;;;;5062572;28;20036;-86
2023/04/12 02:41:08;;;;;;;7.13;1.30;;;8.50;99.90;;;;;;5094726;28;20046;-86
2023/04/12 02:43:34;;;;;;;4.50;1.50;;;8.60;99.90;;;;;;5094388;28;20366;-86
2023/04/12 02:45:59;;;;;;;5.00;1.43;;;8.50;99.90;;;;;;5111257;28;20412;-86
2023/04/12 02:48:25;;;;;;;4.07;1.30;;;8.60;99.90;;;;;;5093995;28;20419;-85
2023/04/12 02:50:51;;;;;;;5.50;1.48;;;8.60;99.90;;;;;;5110974;28;20061;-85
2023/04/12 02:53:17;;;;;;;5.40;1.50;;;8.50;99.90;;;;;;5094326;28;20048;-86
2023/04/12 02:55:43;;;;;;;11.10;1.52;;;8.50;99.90;;;;;;5077212;28;20062;-85
2023/04/12 02:58:09;;;;;;;;;;;8.50;99.90;;;;;;5111971;28;20050;-86
2023/04/12 03:00:34;;;;;;;4.97;1.42;;;8.50;99.90;;;;;;5093402;28;19923;-85
2023/04/12 03:03:02;;;;;;;5.93;1.42;;;8.40;99.90;;;;;;5111561;28;20107;-86
2023/04/12 03:05:28;;;;;;;7.75;1.35;;;8.40;99.90;;;;;;5110992;28;20035;-86
2023/04/12 03:07:54;;;;;;;4.72;1.30;;;8.50;99.90;;;;;;5111187;28;20518;-86
2023/04/12 03:10:20;;;;;;;4.35;1.23;;;8.40;99.90;;;;;;5094009;28;20495;-86
2023/04/12 03:12:45;;;;;;;6.75;1.73;;;8.50;99.90;;;;;;5111387;28;20066;-86
2023/04/12 03:15:11;;;;;;;5.67;1.40;;;8.40;99.90;;;;;;5111154;28;20042;-86
2023/04/12 03:17:37;;;;;;;5.95;1.42;;;8.50;99.90;;;;;;5110262;28;20310;-86
2023/04/12 03:20:09;;;;;;;3.53;1.85;;;8.60;99.90;;;;;;5094364;28;20112;-86
2023/04/12 03:22:36;;;;;;;4.00;1.25;;;8.40;99.90;;;;;;5094796;28;20088;-85
2023/04/12 03:25:05;;;;;;;5.45;1.15;;;8.40;99.90;;;;;;5111101;28;20035;-86
2023/04/12 03:27:30;;;;;;;5.30;1.15;;;8.40;99.90;;;;;;5110555;28;20100;-86
2023/04/12 03:29:56;;;;;;;8.38;2.08;;;8.40;99.90;;;;;;5094421;28;20534;-86
2023/04/12 03:32:22;;;;;;;7.57;1.57;;;8.40;99.90;;;;;;5094302;28;20118;-86
2023/04/12 03:34:48;;;;;;;3.72;1.38;;;8.50;99.90;;;;;;5094554;28;20471;-86
2023/04/12 03:37:14;;;;;;;5.60;1.38;;;8.50;99.90;;;;;;5076849;28;20052;-86
2023/04/12 03:39:39;;;;;;;3.63;1.10;;;8.50;99.90;;;;;;5093126;28;20043;-86
2023/04/12 03:42:05;;;;;;;5.90;1.33;;;8.50;99.90;;;;;;5093746;28;20032;-85
2023/04/12 03:44:32;;;;;;;3.40;1.25;;;8.50;99.90;;;;;;5093718;28;20372;-85
2023/04/12 03:46:58;;;;;;;4.13;1.02;;;8.50;99.90;;;;;;5110611;28;20122;-86
2023/04/12 03:49:24;;;;;;;2.40;1.23;;;8.50;99.90;;;;;;5093397;28;20118;-85
2023/04/12 03:51:51;;;;;;;5.32;1.00;;;8.40;99.90;;;;;;5093589;28;20085;-86
2023/04/12 03:54:16;;;;;;;;;;;8.40;99.90;;;;;;5094549;28;20040;-85
2023/04/12 03:56:42;;;;;;;2.88;1.10;;;8.40;99.90;;;;;;5110072;28;19969;-85
2023/04/12 03:59:08;;;;;;;6.27;1.00;;;8.40;99.90;;;;;;5093344;28;20074;-85
2023/04/12 04:01:37;;;;;;;6.03;1.20;;;8.40;99.90;;;;;;5076168;28;20313;-85
2023/04/12 04:04:04;;;;;;;3.45;1.00;;;8.40;99.90;;;;;;5109956;28;20072;-85
2023/04/12 04:06:29;;;;;;;;;;;8.40;99.90;;;;;;5094795;28;20028;-85
2023/04/12 04:08:56;;;;;;;4.00;1.30;;;8.30;99.90;;;;;;5110231;28;19916;-85
2023/04/12 04:11:23;;;;;;;2.60;1.35;;;8.30;99.90;;;;;;5108216;28;20434;-84
2023/04/12 04:13:49;;;;;;;2.58;1.13;;;8.20;99.90;;;;;;5093003;28;20051;-84
2023/04/12 04:16:14;;;;;;;4.40;1.27;;;8.20;99.90;;;;;;5110839;28;20040;-85
2023/04/12 04:18:40;;;;;;;4.43;1.40;;;8.20;99.90;;;;;;5077077;28;20035;-86
2023/04/12 04:21:06;;;;;;;5.90;1.30;;;8.20;99.90;;;;;;5094579;28;20301;-85
2023/04/12 04:23:38;;;;;;;5.38;1.70;;;8.10;99.90;;;;;;5094150;28;20031;-83
2023/04/12 04:26:10;;;;;;;3.60;1.65;;;8.20;99.90;;;;;;5093019;28;20029;-86
2023/04/12 04:28:48;;;;;;;6.03;1.38;;;8.10;99.90;;;;;;5094813;28;20032;-80
2023/04/12 04:31:16;;;;;;;4.72;1.33;;;8.00;99.90;;;;;;5111981;28;20055;-82
2023/04/12 04:33:41;;;;;;;2.83;1.30;;;8.10;99.90;;;;;;5057583;28;20056;-80
2023/04/12 04:36:08;;;;;;;4.57;1.60;;;8.10;99.90;;;;;;5093485;28;20046;-82
2023/04/12 04:38:34;;;;;;;4.78;1.77;;;8.10;99.90;;;;;;5093656;28;20277;-82
2023/04/12 04:41:03;;;;;;;10.20;1.95;;;8.00;99.90;;;;;;5093550;28;20442;-82
2023/04/12 04:43:30;;;;;;;3.65;1.33;;;8.00;99.90;;;;;;5090917;28;20115;-79
2023/04/12 04:45:56;;;;;;;4.97;1.85;;;8.00;99.90;;;;;;5092580;28;20518;-82
2023/04/12 04:48:23;;;;;;;2.67;1.38;;;8.00;99.90;;;;;;5076264;28;20043;-81
2023/04/12 04:50:50;;;;;;;;;;;7.90;99.90;;;;;;5079809;28;20407;-81
2023/04/12 04:53:17;;;;;;;9.50;1.85;;;8.00;99.90;;;;;;5097260;28;19926;-79
2023/04/12 04:55:43;;;;;;;4.10;1.65;;;7.90;99.90;;;;;;5113073;28;20093;-80
2023/04/12 04:58:09;;;;;;;5.47;1.45;;;7.90;99.90;;;;;;5096927;28;20051;-80
2023/04/12 05:00:35;;;;;;;4.10;1.70;;;7.90;99.90;;;;;;5062696;28;20043;-80
2023/04/12 05:03:04;;;;;;;7.03;1.90;;;7.90;99.90;;;;;;5113221;28;20059;-80
2023/04/12 05:05:29;;;;;;;4.75;1.77;;;7.90;99.90;;;;;;5079969;28;20506;-80
2023/04/12 05:07:56;;;;;;;4.03;1.60;;;7.80;99.90;;;;;;5113443;28;20035;-80
2023/04/12 05:10:23;;;;;;;7.20;2.25;;;7.80;99.90;;;;;;5113273;28;20044;-80
2023/04/12 05:12:48;;;;;;;6.10;2.00;;;7.80;99.90;;;;;;5096329;28;20130;-80
2023/04/12 05:15:14;;;;;;;4.90;1.98;;;7.70;99.90;;;;;;5096602;28;20122;-79
2023/04/12 05:17:40;;;;;;;8.02;2.25;;;7.70;99.90;;;;;;5079010;28;20118;-80
2023/04/12 05:20:07;;;;;;;8.75;2.28;;;7.70;99.90;;;;;;5096164;28;20048;-79
2023/04/12 05:22:33;;;;;;;6.80;2.10;;;7.70;99.90;;;;;;5095708;28;20040;-80
2023/04/12 05:25:00;;;;;;;7.75;2.22;;;7.70;99.90;;;;;;5110668;28;20043;-79
2023/04/12 05:27:29;;;;;;;8.45;2.38;;;7.70;99.90;;;;;;5095707;28;20100;-80
2023/04/12 05:29:58;;;;;;;6.30;2.00;;;7.70;99.90;;;;;;5112694;28;20043;-79
2023/04/12 05:32:24;;;;;;;6.93;1.70;;;7.60;99.90;;;;;;5112810;28;20067;-80
2023/04/12 05:34:51;;;;;;;7.10;2.40;;;7.70;99.90;;;;;;5115042;28;20530;-80
2023/04/12 05:37:17;;;;;;;6.55;2.28;;;7.70;99.90;;;;;;5117698;28;20503;-82
2023/04/12 05:39:43;;;;;;;7.20;2.53;;;7.60;99.90;;;;;;5099956;28;20575;-81
2023/04/12 05:42:08;;;;;;;7.75;2.40;;;7.60;99.90;;;;;;5096162;28;20114;-81
2023/04/12 05:44:37;;;;;;;4.30;2.00;;;7.60;99.90;;;;;;5112175;28;20036;-81
2023/04/12 05:47:03;;;;;;;7.95;3.00;;;7.60;99.90;;;;;;5095301;28;20043;-81
2023/04/12 05:49:32;;;;;;;6.30;1.75;;;7.60;99.90;;;;;;5096185;28;20035;-82
2023/04/12 05:51:58;;;;;;;6.38;1.90;;;7.60;99.90;;;;;;5096440;28;20035;-81
2023/04/12 05:54:24;;;;;;;5.57;2.28;;;7.60;99.90;;;;;;5061359;28;20484;-81
2023/04/12 05:56:51;;;;;;;4.50;2.10;;;7.60;99.90;;;;;;5113250;28;20038;-81
2023/04/12 05:59:18;;;;;;;4.75;1.98;;;7.60;99.90;;;;;;5080142;28;20093;-81
2023/04/12 06:01:45;;;;;;;5.60;2.28;;;7.60;99.90;;;;;;5112878;28;20040;-81
2023/04/12 06:04:10;;;;;;;6.25;2.10;;;7.70;99.90;;;;;;5096319;28;20058;-81
2023/04/12 06:06:36;;;;;;;6.80;2.20;;;7.70;99.90;;;;;;5111975;28;20040;-81
2023/04/12 06:09:03;;;;;;;7.00;1.90;;;7.60;99.90;;;;;;5095512;28;20042;-80
2023/04/12 06:11:32;;;;;;;5.97;1.65;;;7.60;99.90;;;;;;5112299;28;20507;-79
2023/04/12 06:13:59;;;;;;;7.35;2.28;;;7.60;99.90;;;;;;5094735;28;20406;-79
2023/04/12 06:16:24;;;;;;;;;;;7.60;99.90;;;;;;5095552;28;20062;-79
2023/04/12 06:18:50;;;;;;;5.88;1.98;;;7.60;99.90;;;;;;5111516;28;19920;-79
2023/04/12 06:21:16;;;;;;;6.80;2.47;;;7.60;99.90;;;;;;5095234;28;20486;-79
2023/04/12 06:23:41;;;;;;;6.95;1.80;;;7.60;99.90;;;;;;5094971;28;20032;-81
2023/04/12 06:26:07;;;;;;;7.07;2.10;;;7.70;99.90;;;;;;5112084;28;20028;-82
2023/04/12 06:28:33;;;;;;;2.92;1.88;;;7.60;99.90;;;;;;5106554;28;20075;-79
2023/04/12 06:30:59;;;;;;;7.53;2.33;;;7.60;99.90;;;;;;5111408;28;20500;-80
2023/04/12 06:33:26;;;;;;;4.75;1.90;;;7.60;99.90;;;;;;5094670;28;20290;-79
2023/04/12 06:35:51;;;;;;;5.15;2.00;;;7.60;99.90;;;;;;5094107;28;20067;-79
2023/04/12 06:38:18;;;;;;;6.13;1.98;;;7.60;99.90;;;;;;5111790;28;20458;-79
2023/04/12 06:40:44;;;;;;;10.38;3.42;;;7.60;99.90;;;;;;5111481;28;20051;-80
2023/04/12 06:43:09;;;;;;;4.18;1.92;;;7.50;99.90;;;;;;5077791;28;20368;-80
2023/04/12 06:45:35;;;;;;;7.25;1.95;;;7.50;99.90;;;;;;5111604;28;20048;-79
2023/04/12 06:48:01;;;;;;;4.00;2.00;;;7.50;99.90;;;;;;5111475;28;20116;-80
2023/04/12 06:50:26;;;;;;;4.87;2.10;;;7.60;99.90;;;;;;5111531;28;20281;-80
2023/04/12 06:52:52;;;;;;;4.73;2.33;;;7.60;99.90;;;;;;5093858;28;20130;-81
2023/04/12 06:55:18;;;;;;;7.83;2.53;;;7.60;99.90;;;;;;5111687;28;20633;-79
2023/04/12 06:57:45;;;;;;;5.55;2.25;;;7.60;99.90;;;;;;5094253;28;20284;-79
2023/04/12 07:00:11;;;;;;;4.30;1.95;;;7.60;99.90;;;;;;5111029;28;20050;-80
2023/04/12 07:02:37;;;;;;;;;;;7.50;99.90;;;;;;5111470;28;20027;-80
2023/04/12 07:05:04;;;;;;;5.72;2.28;;;7.60;99.90;;;;;;5111340;28;20325;-80
2023/04/12 07:07:30;;;;;;;5.72;2.70;;;7.60;99.90;;;;;;5094482;28;20088;-81
2023/04/12 07:09:55;;;;;;;5.82;2.40;;;7.60;99.90;;;;;;5111715;28;20039;-80
2023/04/12 07:12:21;;;;;;;4.23;1.60;;;7.70;99.90;;;;;;5111006;28;20039;-81
2023/04/12 07:14:47;;;;;;;5.40;2.10;;;7.50;99.90;;;;;;5093831;28;20673;-82
2023/04/12 07:17:13;;;;;;;4.88;2.08;;;7.60;99.90;;;;;;5111624;28;20039;-77
2023/04/12 07:19:40;;;;;;;8.07;2.70;;;7.50;99.90;;;;;;5093649;28;20078;-77
2023/04/12 07:22:06;;;;;;;4.75;2.88;;;7.50;99.90;;;;;;5110765;28;20035;-76
2023/04/12 07:24:32;;;;;;;6.47;2.80;;;7.60;99.90;;;;;;5111059;28;20418;-76
2023/04/12 07:26:58;;;;;;;4.70;2.58;;;7.50;99.90;;;;;;5110123;28;20031;-77
2023/04/12 07:29:24;;;;;;;5.25;2.30;;;7.70;99.90;;;;;;5093913;28;20098;-76
2023/04/12 07:31:49;;;;;;;8.52;2.30;;;7.60;99.90;;;;;;5110039;28;20130;-76
2023/04/12 07:34:15;;;;;;;6.05;2.22;;;7.60;99.90;;;;;;5110192;28;20174;-76
2023/04/12 07:36:43;;;;;;;5.57;2.42;;;7.60;99.90;;;;;;5093167;28;20027;-76
2023/04/12 07:39:10;;;;;;;4.05;1.80;;;7.60;99.90;;;;;;5093338;28;20073;-76
2023/04/12 07:41:37;;;;;;;4.97;1.90;;;7.60;99.90;;;;;;5093319;28;20089;-76
2023/04/12 07:44:03;;;;;;;;;;;7.70;99.90;;;;;;5110991;28;20480;-76
2023/04/12 07:46:28;;;;;;;3.85;2.03;;;7.70;99.90;;;;;;5110457;28;19926;-76
2023/04/12 07:48:54;;;;;;;2.78;1.90;;;7.70;99.90;;;;;;5109803;28;20123;-77
2023/04/12 07:51:20;;;;;;;6.28;2.72;;;7.70;99.90;;;;;;5110301;28;20464;-77
2023/04/12 07:53:47;;;;;;;2.45;1.50;;;7.70;99.90;;;;;;5092988;28;20135;-77
2023/04/12 07:56:13;;;;;;;6.10;2.72;;;7.80;99.90;;;;;;5110014;28;20092;-77
2023/04/12 07:58:39;;;;;;;4.18;2.38;;;7.80;99.90;;;;;;5093368;28;20038;-77
2023/04/12 08:01:06;;;;;;;7.43;2.58;;;7.80;99.90;;;;;;5092725;28;20066;-77
2023/04/12 08:03:32;;;;;;;;;;;7.80;99.90;;;;;;5094189;28;20035;-77
2023/04/12 08:05:57;;;;;;;4.57;2.60;;;7.70;99.90;;;;;;5092799;28;20006;-77
2023/04/12 08:08:23;;;;;;;2.88;2.10;;;7.80;99.90;;;;;;5110426;28;20399;-80
2023/04/12 08:10:50;;;;;;;5.38;2.45;;;7.80;99.90;;;;;;5074523;28;20032;-80
2023/04/12 08:13:16;;;;;;;5.45;2.60;;;7.80;99.90;;;;;;5110477;28;20036;-80
2023/04/12 08:15:42;;;;;;;3.50;2.40;;;7.80;99.90;;;;;;5076185;28;20036;-80
2023/04/12 08:18:09;;;;;;;5.68;2.55;;;7.80;99.90;;;;;;5093194;28;20067;-80
2023/04/12 08:20:35;;;;;;;;;;;7.80;99.90;;;;;;5110383;28;20510;-80
2023/04/12 08:23:01;;;;;;;4.93;2.70;;;7.90;99.90;;;;;;5109721;28;19916;-80
2023/04/12 08:25:27;;;;;;;1.70;1.58;;;7.90;99.90;;;;;;5095734;28;20166;-80
2023/04/12 08:27:53;;;;;;;4.53;2.58;;;8.00;99.90;;;;;;5113752;28;20498;-80
2023/04/12 08:30:19;;;;;;;5.63;2.55;;;8.10;99.90;;;;;;5062173;28;20062;-80
2023/04/12 08:32:44;;;;;;;3.33;2.50;;;8.10;99.90;;;;;;5113813;28;20032;-80
2023/04/12 08:35:11;;;;;;;5.80;2.60;;;8.10;99.90;;;;;;5096703;28;20054;-79
2023/04/12 08:37:36;;;;;;;4.15;2.55;;;8.10;99.90;;;;;;5113602;28;20035;-80
2023/04/12 08:40:06;;;;;;;3.50;2.38;;;8.10;99.90;;;;;;5096411;28;20476;-79
2023/04/12 08:42:36;;;;;;;3.63;2.58;;;8.20;99.90;;;;;;5113602;28;20035;-79
2023/04/12 08:45:10;;;;;;;3.67;2.60;;;8.10;99.90;;;;;;5094246;28;20499;-79
2023/04/12 08:47:41;;;;;;;3.20;2.45;;;8.20;99.90;;;;;;5096589;28;20113;-79
2023/04/12 08:50:09;;;;;;;4.95;3.28;;;8.20;99.90;;;;;;5094239;28;20036;-80
2023/04/12 08:52:36;;;;;;;4.05;2.05;;;8.20;99.90;;;;;;5113484;28;20054;-80
2023/04/12 08:55:06;;;;;;;4.47;2.72;;;8.30;99.90;;;;;;5096557;28;20071;-80
2023/04/12 08:57:33;;;;;;;5.55;3.13;;;8.40;99.90;;;;;;5111687;28;20047;-80
2023/04/12 09:00:00;;;;;;;4.82;3.20;;;8.40;99.90;;;;;;5096250;28;20035;-80
2023/04/12 09:02:27;;;;;;;5.15;2.92;;;8.40;99.90;;;;;;5113229;28;20039;-79
2023/04/12 09:04:53;;;;;;;6.00;3.17;;;8.30;99.90;;;;;;5096424;28;20119;-79
2023/04/12 09:07:22;;;;;;;6.65;3.92;;;8.40;99.90;;;;;;5112804;28;20114;-78
2023/04/12 09:09:48;;;;;;;3.72;2.75;;;8.40;99.90;;;;;;5094018;28;20088;-78
2023/04/12 09:12:15;;;;;;;5.60;3.15;;;8.40;99.90;;;;;;5095532;28;20294;-79
2023/04/12 09:14:44;;;;;;;4.25;3.17;;;8.50;99.90;;;;;;5095766;28;20088;-79
2023/04/12 09:17:26;;;;;;;3.92;3.17;;;8.60;99.90;;;;;;5095604;28;20031;-79
2023/04/12 09:19:53;;;;;;;4.60;3.05;;;8.60;99.90;;;;;;5111974;28;20069;-80
2023/04/12 09:22:35;;;;;;;6.90;3.67;;;8.60;99.90;;;;;;5112210;28;20042;-80
2023/04/12 09:25:01;;;;;;;5.70;3.28;;;8.70;99.90;;;;;;5112328;28;20043;-80
2023/04/12 09:27:28;;;;;;;5.40;4.40;;;8.70;99.90;;;;;;5112472;28;20084;-80
2023/04/12 09:30:08;;;;;;;5.05;3.53;;;8.70;99.90;;;;;;5095936;28;20043;-80
2023/04/12 09:32:34;;;;;;;5.05;3.55;;;8.80;99.90;;;;;;5112118;28;20118;-80
2023/04/12 09:35:01;;;;;;;6.35;3.88;;;8.80;99.90;;;;;;5076430;28;20040;-79
2023/04/12 09:37:27;;;;;;;4.97;3.42;;;8.90;99.90;;;;;;5078204;28;20043;-80
2023/04/12 09:40:08;;;;;;;4.80;3.63;;;8.90;99.90;;;;;;5078355;28;20112;-80
2023/04/12 09:42:36;;;;;;;5.38;3.80;;;8.80;99.90;;;;;;5094053;28;20031;-80
2023/04/12 09:45:24;;;;;;;6.53;3.75;;;8.90;99.90;;;;;;5094873;28;20038;-81
2023/04/12 09:47:50;;;;;;;5.72;4.18;;;9.00;99.90;;;;;;5100221;28;20502;-81
2023/04/12 09:50:31;;;;;;;6.30;4.47;;;9.10;99.90;;;;;;5111966;28;20040;-81
2023/04/12 09:52:58;;;;;;;6.50;4.78;;;9.30;99.90;;;;;;5063542;28;20043;-81
2023/04/12 09:55:26;;;;;;;7.43;5.28;;;9.40;99.90;;;;;;5078826;28;20610;-81
2023/04/12 09:57:53;;;;;;;13.18;5.20;;;9.50;99.90;;;;;;5095202;28;20043;-80
2023/04/12 10:00:22;;;;;;;8.60;5.07;;;9.60;99.90;;;;;;5077765;28;20062;-80
2023/04/12 10:02:50;;;;;;;8.43;5.55;;;9.80;99.90;;;;;;5111668;28;20031;-80
2023/04/12 10:05:18;;;;;;;5.97;3.63;;;9.80;99.90;;;;;;5093649;28;20041;-80
2023/04/12 10:07:45;;;;;;;8.70;4.32;;;10.00;99.90;;;;;;5092986;28;20036;-80
2023/04/12 10:10:14;;;;;;;7.50;4.15;;;10.00;99.90;;;;;;5111465;28;20032;-80
2023/04/12 10:12:41;;;;;;;6.68;4.70;;;9.90;99.90;;;;;;5078254;28;20040;-80
2023/04/12 10:15:16;;;;;;;4.93;3.75;;;10.00;99.90;;;;;;5094456;28;20118;-80
2023/04/12 10:17:47;;;;;;;4.78;3.25;;;10.00;99.90;;;;;;5095044;28;20752;-81
2023/04/12 10:20:14;;;;;;;9.82;4.43;;;10.30;99.90;;;;;;5094174;28;20104;-81
2023/04/12 10:22:42;;;;;;;8.52;5.30;;;10.60;99.90;;;;;;5103155;28;20036;-81
2023/04/12 10:25:37;;;;;;;8.35;4.78;;;10.90;99.90;;;;;;5074536;28;20069;-81
2023/04/12 10:28:17;;;;;;;8.98;4.60;;;11.20;99.90;;;;;;5096890;28;20054;-80
2023/04/12 10:30:43;;;;;;;7.63;3.38;;;11.60;99.90;;;;;;5090733;28;20031;-81
2023/04/12 10:33:11;;;;;;;;;;;12.10;99.90;;;;;;5110065;28;20047;-81
2023/04/12 10:35:58;;;;;;;4.63;2.85;;;12.40;99.90;;;;;;5111247;28;20399;-81
2023/04/12 10:38:26;;;;;;;6.25;2.42;;;12.60;99.90;;;;;;5107751;28;20043;-81
2023/04/12 10:41:08;;;;;;;8.73;3.40;;;12.70;99.90;;;;;;5092335;28;20039;-81
2023/04/12 10:43:34;;;;;;;6.03;2.92;;;12.60;99.90;;;;;;5108742;28;20044;-81
2023/04/12 10:46:05;;;;;;;7.88;3.50;;;12.30;99.90;;;;;;5093994;28;20047;-81
2023/04/12 10:48:35;;;;;;;6.53;2.22;;;12.50;99.90;;;;;;5093691;28;20104;-81
2023/04/12 10:51:29;;;;;;;6.57;2.88;;;12.40;99.90;;;;;;5109484;28;20234;-81
2023/04/12 10:54:21;;;;;;;6.50;2.88;;;12.10;99.90;;;;;;5093127;28;20482;-81
2023/04/12 10:56:47;;;;;;;9.00;2.85;;;12.00;99.90;;;;;;5093896;28;20039;-81
2023/04/12 10:59:14;;;;;;;14.18;2.58;;;12.20;99.90;;;;;;5076487;28;20499;-81
2023/04/12 11:01:40;;;;;;;5.13;1.77;;;12.30;99.90;;;;;;5091555;28;20031;-81
2023/04/12 11:04:13;;;;;;;5.85;2.00;;;12.30;99.90;;;;;;5093133;28;20036;-81
2023/04/12 11:07:00;;;;;;;5.57;2.35;;;12.30;99.90;;;;;;5093101;28;20031;-81
2023/04/12 11:09:32;;;;;;;8.00;2.13;;;12.30;99.90;;;;;;5090479;28;20035;-81
2023/04/12 11:12:04;;;;;;;5.35;2.08;;;12.50;99.90;;;;;;5092216;28;20458;-79
2023/04/12 11:14:41;;;;;;;10.05;2.35;;;12.80;99.90;;;;;;5109757;28;20403;-80
2023/04/12 11:17:07;;;;;;;5.15;1.60;;;13.00;99.90;;;;;;5110236;28;20032;-80
2023/04/12 11:19:45;;;;;;;8.10;1.80;;;13.10;99.90;;;;;;5092372;28;20352;-80
2023/04/12 11:22:16;;;;;;;8.68;1.90;;;13.40;99.90;;;;;;5072545;28;20294;-80
2023/04/12 11:24:44;;;;;;;7.82;1.73;;;13.40;99.90;;;;;;5109398;28;20035;-80
2023/04/12 11:27:10;;;;;;;3.60;1.70;;;13.50;99.90;;;;;;5091681;28;20050;-80
2023/04/12 11:29:36;;;;;;;4.35;1.70;;;13.40;99.90;;;;;;5109616;28;20122;-80
2023/04/12 11:32:03;;;;;;;6.15;1.60;;;13.30;99.90;;;;;;5090939;28;20147;-80
2023/04/12 11:34:33;;;;;;;5.95;2.10;;;13.30;99.90;;;;;;5092192;28;20071;-80
2023/04/12 11:36:59;;;;;;;5.93;1.67;;;13.40;99.90;;;;;;5075970;28;20123;-80
2023/04/12 11:39:27;;;;;;;7.90;1.75;;;13.40;99.90;;;;;;5092460;28;20036;-80
2023/04/12 11:41:53;;;;;;;6.28;1.50;;;13.50;99.90;;;;;;5074435;28;20046;-80
2023/04/12 11:44:21;;;;;;;3.47;1.00;;;13.50;99.90;;;;;;5092286;28;20539;-80
2023/04/12 11:46:47;;;;;;;7.22;1.30;;;13.50;99.90;;;;;;5076165;28;20108;-80
2023/04/12 11:49:19;;;;;;;5.68;1.30;;;13.50;99.90;;;;;;5092151;28;20040;-80
2023/04/12 11:51:44;;;;;;;10.40;1.38;;;13.50;99.90;;;;;;5091788;28;20035;-80
2023/04/12 11:54:11;;;;;;;5.53;1.60;;;13.50;99.90;;;;;;5109225;28;20031;-80
2023/04/12 11:56:41;;;;;;;7.32;1.27;;;13.50;99.90;;;;;;5092409;28;20556;-80
2023/04/12 11:59:07;;;;;;;9.27;1.42;;;13.40;99.90;;;;;;5094499;28;20138;-80
2023/04/12 12:01:37;;;;;;;10.77;2.00;;;13.30;99.90;;;;;;5095944;28;20046;-79
2023/04/12 12:04:03;;;;;;;8.00;1.60;;;13.40;99.90;;;;;;5094706;28;20039;-80
2023/04/12 12:06:30;;;;;;;9.13;1.80;;;13.40;99.90;;;;;;5079357;28;20059;-80
2023/04/12 12:08:56;;;;;;;;;;;13.60;99.90;;;;;;5063917;28;20114;-80
2023/04/12 12:11:23;;;;;;;8.35;1.33;;;13.50;99.90;;;;;;5095412;28;19947;-80
2023/04/12 12:14:08;;;;;;;9.07;1.73;;;13.40;99.90;;;;;;5111923;28;20055;-81
2023/04/12 12:16:34;;;;;;;5.80;1.33;;;13.40;99.90;;;;;;5075461;28;20090;-80
2023/04/12 12:19:04;;;;;;;11.95;1.67;;;13.40;99.90;;;;;;5098146;28;20131;-81
2023/04/12 12:21:30;;;;;;;6.88;1.50;;;13.30;99.90;;;;;;5097745;28;20054;-80
2023/04/12 12:23:57;;;;;;;7.00;1.05;;;13.20;99.90;;;;;;5096904;28;20039;-80
2023/04/12 12:26:27;;;;;;;8.85;1.58;;;13.10;99.90;;;;;;5113820;28;20039;-79
2023/04/12 12:28:55;;;;;;;11.18;1.95;;;13.00;99.90;;;;;;5114286;28;20027;-80
2023/04/12 12:31:23;;;;;;;12.27;1.67;;;12.80;99.90;;;;;;5113996;28;20048;-80
2023/04/12 12:33:52;;;;;;;10.05;1.58;;;12.70;99.90;;;;;;5097770;28;20505;-79
2023/04/12 12:36:19;;;;;;;9.32;1.83;;;12.70;99.90;;;;;;5112914;28;20126;-80
2023/04/12 12:38:47;;;;;;;10.57;2.05;;;12.60;99.90;;;;;;5078701;28;20114;-80
2023/04/12 12:41:23;;;;;;;5.90;2.03;;;12.60;99.90;;;;;;5077845;28;20051;-79
2023/04/12 12:43:51;;;;;;;11.88;1.67;;;12.60;99.90;;;;;;5096565;28;20035;-79
2023/04/12 12:46:18;;;;;;;8.13;1.60;;;12.70;99.90;;;;;;5096212;28;20055;-79
2023/04/12 12:48:45;;;;;;;9.20;1.60;;;12.70;99.90;;;;;;5094502;28;20487;-79
2023/04/12 12:51:12;;;;;;;11.20;1.70;;;12.70;99.90;;;;;;5096449;28;20040;-79
2023/04/12 12:53:39;;;;;;;11.73;1.90;;;12.90;99.90;;;;;;5112953;28;20204;-79
2023/04/12 12:56:11;;;;;;;8.57;1.30;;;13.00;99.90;;;;;;5079337;28;20118;-79
2023/04/12 12:58:37;;;;;;;9.13;1.40;;;13.10;99.90;;;;;;5077687;28;20101;-79
2023/04/12 13:01:03;;;;;;;10.18;1.40;;;13.20;99.90;;;;;;5095913;28;20043;-79
2023/04/12 13:03:32;;;;;;;5.88;1.77;;;13.30;99.90;;;;;;5078865;28;20036;-79